sensor_id;sensor_type;location;lat;lon;timestamp;temperature;humidity
27072;DHT22;14613;46.308;25.288;2023-08-20T00:01:01;21.00;71.60
27072;DHT22;14613;46.308;25.288;2023-08-20T00:03:29;20.90;71.70
27072;DHT22;14613;46.308;25.288;2023-08-20T00:05:55;20.90;71.90
27072;DHT22;14613;46.308;25.288;2023-08-20T00:08:21;20.80;72.10
27072;DHT22;14613;46.308;25.288;2023-08-20T00:10:47;20.80;72.10
27072;DHT22;14613;46.308;25.288;2023-08-20T00:13:12;20.80;72.20
27072;DHT22;14613;46.308;25.288;2023-08-20T00:15:38;20.70;72.30
27072;DHT22;14613;46.308;25.288;2023-08-20T00:18:04;20.70;72.40
27072;DHT22;14613;46.308;25.288;2023-08-20T00:20:30;20.70;72.40
27072;DHT22;14613;46.308;25.288;2023-08-20T00:22:56;20.70;72.40
27072;DHT22;14613;46.308;25.288;2023-08-20T00:25:22;20.70;72.50
27072;DHT22;14613;46.308;25.288;2023-08-20T00:27:48;20.70;72.50
27072;DHT22;14613;46.308;25.288;2023-08-20T00:30:14;20.70;72.50
27072;DHT22;14613;46.308;25.288;2023-08-20T00:32:40;20.70;72.50
27072;DHT22;14613;46.308;25.288;2023-08-20T00:35:06;20.70;72.60
27072;DHT22;14613;46.308;25.288;2023-08-20T00:37:34;20.60;72.70
27072;DHT22;14613;46.308;25.288;2023-08-20T00:40:01;20.60;72.80
27072;DHT22;14613;46.308;25.288;2023-08-20T00:42:30;20.50;72.90
27072;DHT22;14613;46.308;25.288;2023-08-20T00:44:56;20.50;73.10
27072;DHT22;14613;46.308;25.288;2023-08-20T00:47:21;20.50;73.10
27072;DHT22;14613;46.308;25.288;2023-08-20T00:49:48;20.50;73.10
27072;DHT22;14613;46.308;25.288;2023-08-20T00:52:16;20.50;73.10
27072;DHT22;14613;46.308;25.288;2023-08-20T00:54:42;20.50;73.10
27072;DHT22;14613;46.308;25.288;2023-08-20T00:57:09;20.50;73.20
27072;DHT22;14613;46.308;25.288;2023-08-20T00:59:36;20.50;73.30
27072;DHT22;14613;46.308;25.288;2023-08-20T01:02:02;20.40;73.30
27072;DHT22;14613;46.308;25.288;2023-08-20T01:04:29;20.40;73.40
27072;DHT22;14613;46.308;25.288;2023-08-20T01:07:23;20.30;73.50
27072;DHT22;14613;46.308;25.288;2023-08-20T01:10:12;20.20;73.80
27072;DHT22;14613;46.308;25.288;2023-08-20T01:12:42;20.10;74.00
27072;DHT22;14613;46.308;25.288;2023-08-20T01:15:09;20.10;74.00
27072;DHT22;14613;46.308;25.288;2023-08-20T01:17:40;20.00;74.20
27072;DHT22;14613;46.308;25.288;2023-08-20T01:20:07;19.90;74.30
27072;DHT22;14613;46.308;25.288;2023-08-20T01:28:27;19.80;74.90
27072;DHT22;14613;46.308;25.288;2023-08-20T01:30:54;19.70;74.90
27072;DHT22;14613;46.308;25.288;2023-08-20T01:33:25;19.70;75.00
27072;DHT22;14613;46.308;25.288;2023-08-20T01:35:54;19.70;74.90
27072;DHT22;14613;46.308;25.288;2023-08-20T01:38:21;19.70;75.00
27072;DHT22;14613;46.308;25.288;2023-08-20T01:40:47;19.70;75.00
27072;DHT22;14613;46.308;25.288;2023-08-20T01:43:13;19.70;75.00
27072;DHT22;14613;46.308;25.288;2023-08-20T01:45:39;19.70;75.00
27072;DHT22;14613;46.308;25.288;2023-08-20T01:48:04;19.70;75.00
27072;DHT22;14613;46.308;25.288;2023-08-20T01:50:31;19.70;75.00
27072;DHT22;14613;46.308;25.288;2023-08-20T01:52:56;19.80;75.00
27072;DHT22;14613;46.308;25.288;2023-08-20T01:55:22;19.80;75.10
27072;DHT22;14613;46.308;25.288;2023-08-20T01:57:48;19.70;75.10
27072;DHT22;14613;46.308;25.288;2023-08-20T02:00:14;19.60;75.30
27072;DHT22;14613;46.308;25.288;2023-08-20T02:02:40;19.60;75.30
27072;DHT22;14613;46.308;25.288;2023-08-20T02:05:06;19.60;75.40
27072;DHT22;14613;46.308;25.288;2023-08-20T02:07:32;19.50;75.40
27072;DHT22;14613;46.308;25.288;2023-08-20T02:09:57;19.50;75.70
27072;DHT22;14613;46.308;25.288;2023-08-20T02:12:24;19.40;75.80
27072;DHT22;14613;46.308;25.288;2023-08-20T02:14:50;19.40;75.90
27072;DHT22;14613;46.308;25.288;2023-08-20T02:17:15;19.40;75.90
27072;DHT22;14613;46.308;25.288;2023-08-20T02:19:41;19.40;75.90
27072;DHT22;14613;46.308;25.288;2023-08-20T02:22:07;19.40;75.90
27072;DHT22;14613;46.308;25.288;2023-08-20T02:24:33;19.30;76.00
27072;DHT22;14613;46.308;25.288;2023-08-20T02:26:58;19.30;76.00
27072;DHT22;14613;46.308;25.288;2023-08-20T02:29:24;19.30;76.00
27072;DHT22;14613;46.308;25.288;2023-08-20T02:31:50;19.30;76.00
27072;DHT22;14613;46.308;25.288;2023-08-20T02:34:16;19.30;76.10
27072;DHT22;14613;46.308;25.288;2023-08-20T02:36:42;19.20;76.20
27072;DHT22;14613;46.308;25.288;2023-08-20T02:39:07;19.20;76.30
27072;DHT22;14613;46.308;25.288;2023-08-20T02:41:36;19.20;76.40
27072;DHT22;14613;46.308;25.288;2023-08-20T02:44:03;19.20;76.40
27072;DHT22;14613;46.308;25.288;2023-08-20T02:46:29;19.10;76.40
27072;DHT22;14613;46.308;25.288;2023-08-20T02:48:55;19.10;76.50
27072;DHT22;14613;46.308;25.288;2023-08-20T02:51:21;19.10;76.50
27072;DHT22;14613;46.308;25.288;2023-08-20T02:53:47;19.10;76.50
27072;DHT22;14613;46.308;25.288;2023-08-20T02:56:12;19.00;76.50
27072;DHT22;14613;46.308;25.288;2023-08-20T02:58:38;19.00;76.50
27072;DHT22;14613;46.308;25.288;2023-08-20T03:01:04;19.10;76.60
27072;DHT22;14613;46.308;25.288;2023-08-20T03:03:29;19.00;76.60
27072;DHT22;14613;46.308;25.288;2023-08-20T03:05:55;19.00;76.50
27072;DHT22;14613;46.308;25.288;2023-08-20T03:08:21;19.00;76.50
27072;DHT22;14613;46.308;25.288;2023-08-20T03:10:47;19.00;76.70
27072;DHT22;14613;46.308;25.288;2023-08-20T03:13:12;19.00;76.70
27072;DHT22;14613;46.308;25.288;2023-08-20T03:15:38;18.90;76.70
27072;DHT22;14613;46.308;25.288;2023-08-20T03:18:04;18.90;76.80
27072;DHT22;14613;46.308;25.288;2023-08-20T03:20:30;18.90;76.80
27072;DHT22;14613;46.308;25.288;2023-08-20T03:22:58;18.90;77.00
27072;DHT22;14613;46.308;25.288;2023-08-20T03:25:24;18.80;77.10
27072;DHT22;14613;46.308;25.288;2023-08-20T03:27:51;18.80;77.10
27072;DHT22;14613;46.308;25.288;2023-08-20T03:30:17;18.80;77.10
27072;DHT22;14613;46.308;25.288;2023-08-20T03:32:43;18.80;77.10
27072;DHT22;14613;46.308;25.288;2023-08-20T03:35:09;18.80;77.20
27072;DHT22;14613;46.308;25.288;2023-08-20T03:37:35;18.70;77.40
27072;DHT22;14613;46.308;25.288;2023-08-20T03:40:00;18.70;77.40
27072;DHT22;14613;46.308;25.288;2023-08-20T03:42:26;18.70;77.50
27072;DHT22;14613;46.308;25.288;2023-08-20T03:44:52;18.70;77.50
27072;DHT22;14613;46.308;25.288;2023-08-20T03:47:18;18.80;77.70
27072;DHT22;14613;46.308;25.288;2023-08-20T03:49:47;18.80;77.80
27072;DHT22;14613;46.308;25.288;2023-08-20T03:52:13;19.00;77.90
27072;DHT22;14613;46.308;25.288;2023-08-20T03:54:39;19.00;77.90
27072;DHT22;14613;46.308;25.288;2023-08-20T03:57:05;19.10;77.90
27072;DHT22;14613;46.308;25.288;2023-08-20T03:59:31;19.20;77.70
27072;DHT22;14613;46.308;25.288;2023-08-20T04:01:57;19.30;77.80
27072;DHT22;14613;46.308;25.288;2023-08-20T04:04:22;19.40;77.90
27072;DHT22;14613;46.308;25.288;2023-08-20T04:06:48;19.60;78.00
27072;DHT22;14613;46.308;25.288;2023-08-20T04:09:14;19.80;77.80
27072;DHT22;14613;46.308;25.288;2023-08-20T04:11:40;20.10;77.80
27072;DHT22;14613;46.308;25.288;2023-08-20T04:14:05;20.40;77.70
27072;DHT22;14613;46.308;25.288;2023-08-20T04:16:31;20.60;77.30
27072;DHT22;14613;46.308;25.288;2023-08-20T04:18:57;20.90;76.90
27072;DHT22;14613;46.308;25.288;2023-08-20T04:21:23;21.20;76.70
27072;DHT22;14613;46.308;25.288;2023-08-20T04:23:49;21.50;76.40
27072;DHT22;14613;46.308;25.288;2023-08-20T04:26:14;21.80;76.00
27072;DHT22;14613;46.308;25.288;2023-08-20T04:28:40;22.10;75.60
27072;DHT22;14613;46.308;25.288;2023-08-20T04:31:06;22.50;75.20
27072;DHT22;14613;46.308;25.288;2023-08-20T04:33:32;22.80;74.60
27072;DHT22;14613;46.308;25.288;2023-08-20T04:35:57;23.10;74.20
27072;DHT22;14613;46.308;25.288;2023-08-20T04:38:23;23.40;73.80
27072;DHT22;14613;46.308;25.288;2023-08-20T04:40:49;23.80;73.30
27072;DHT22;14613;46.308;25.288;2023-08-20T04:43:15;24.20;72.70
27072;DHT22;14613;46.308;25.288;2023-08-20T04:45:41;24.50;72.10
27072;DHT22;14613;46.308;25.288;2023-08-20T04:48:08;24.80;71.30
27072;DHT22;14613;46.308;25.288;2023-08-20T04:50:34;25.10;70.80
27072;DHT22;14613;46.308;25.288;2023-08-20T04:52:59;25.30;70.20
27072;DHT22;14613;46.308;25.288;2023-08-20T04:55:26;25.60;69.90
27072;DHT22;14613;46.308;25.288;2023-08-20T04:57:52;25.80;69.40
27072;DHT22;14613;46.308;25.288;2023-08-20T05:00:18;26.00;69.00
27072;DHT22;14613;46.308;25.288;2023-08-20T05:02:43;26.20;68.70
27072;DHT22;14613;46.308;25.288;2023-08-20T05:05:10;26.40;68.30
27072;DHT22;14613;46.308;25.288;2023-08-20T05:07:36;26.70;67.90
27072;DHT22;14613;46.308;25.288;2023-08-20T05:10:02;26.90;67.50
27072;DHT22;14613;46.308;25.288;2023-08-20T05:12:28;27.20;67.10
27072;DHT22;14613;46.308;25.288;2023-08-20T05:14:54;27.50;66.60
27072;DHT22;14613;46.308;25.288;2023-08-20T05:17:19;27.70;65.90
27072;DHT22;14613;46.308;25.288;2023-08-20T05:19:45;27.90;65.60
27072;DHT22;14613;46.308;25.288;2023-08-20T05:22:11;28.20;65.10
27072;DHT22;14613;46.308;25.288;2023-08-20T05:24:38;28.50;64.70
27072;DHT22;14613;46.308;25.288;2023-08-20T05:27:13;28.80;64.30
27072;DHT22;14613;46.308;25.288;2023-08-20T05:29:45;29.00;63.60
27072;DHT22;14613;46.308;25.288;2023-08-20T05:32:11;29.30;63.10
27072;DHT22;14613;46.308;25.288;2023-08-20T05:34:37;29.60;62.80
27072;DHT22;14613;46.308;25.288;2023-08-20T05:37:03;29.80;62.10
27072;DHT22;14613;46.308;25.288;2023-08-20T05:39:30;30.00;61.80
27072;DHT22;14613;46.308;25.288;2023-08-20T05:41:56;30.30;61.20
27072;DHT22;14613;46.308;25.288;2023-08-20T05:44:22;30.50;60.70
27072;DHT22;14613;46.308;25.288;2023-08-20T05:46:48;30.80;60.40
27072;DHT22;14613;46.308;25.288;2023-08-20T05:49:14;31.00;59.90
27072;DHT22;14613;46.308;25.288;2023-08-20T05:51:42;31.30;59.30
27072;DHT22;14613;46.308;25.288;2023-08-20T05:54:08;31.50;58.80
27072;DHT22;14613;46.308;25.288;2023-08-20T05:56:34;31.80;58.50
27072;DHT22;14613;46.308;25.288;2023-08-20T05:58:59;32.00;58.00
27072;DHT22;14613;46.308;25.288;2023-08-20T06:01:25;32.10;57.50
27072;DHT22;14613;46.308;25.288;2023-08-20T06:03:51;32.30;57.20
27072;DHT22;14613;46.308;25.288;2023-08-20T06:06:16;32.40;56.90
27072;DHT22;14613;46.308;25.288;2023-08-20T06:08:42;32.70;56.70
27072;DHT22;14613;46.308;25.288;2023-08-20T06:11:08;33.00;56.40
27072;DHT22;14613;46.308;25.288;2023-08-20T06:13:34;33.10;55.90
27072;DHT22;14613;46.308;25.288;2023-08-20T06:15:59;33.20;55.40
27072;DHT22;14613;46.308;25.288;2023-08-20T06:18:25;33.20;55.20
27072;DHT22;14613;46.308;25.288;2023-08-20T06:20:51;33.10;55.10
27072;DHT22;14613;46.308;25.288;2023-08-20T06:23:16;32.90;54.90
27072;DHT22;14613;46.308;25.288;2023-08-20T06:25:42;32.70;54.90
27072;DHT22;14613;46.308;25.288;2023-08-20T06:28:08;32.60;55.10
27072;DHT22;14613;46.308;25.288;2023-08-20T06:30:35;32.50;55.30
27072;DHT22;14613;46.308;25.288;2023-08-20T06:33:01;32.60;55.50
27072;DHT22;14613;46.308;25.288;2023-08-20T06:35:27;32.80;55.50
27072;DHT22;14613;46.308;25.288;2023-08-20T06:37:53;33.00;55.30
27072;DHT22;14613;46.308;25.288;2023-08-20T06:40:18;33.30;55.00
27072;DHT22;14613;46.308;25.288;2023-08-20T06:42:44;33.60;54.70
27072;DHT22;14613;46.308;25.288;2023-08-20T06:45:10;33.80;54.20
27072;DHT22;14613;46.308;25.288;2023-08-20T06:47:36;34.00;54.00
27072;DHT22;14613;46.308;25.288;2023-08-20T06:50:02;34.20;53.40
27072;DHT22;14613;46.308;25.288;2023-08-20T06:52:28;34.30;53.00
27072;DHT22;14613;46.308;25.288;2023-08-20T06:54:54;34.40;52.80
27072;DHT22;14613;46.308;25.288;2023-08-20T06:57:19;34.60;52.80
27072;DHT22;14613;46.308;25.288;2023-08-20T06:59:45;34.70;52.60
27072;DHT22;14613;46.308;25.288;2023-08-20T07:02:11;34.90;52.40
27072;DHT22;14613;46.308;25.288;2023-08-20T07:04:37;35.10;52.20
27072;DHT22;14613;46.308;25.288;2023-08-20T07:07:03;35.20;52.60
27072;DHT22;14613;46.308;25.288;2023-08-20T07:09:32;35.30;51.80
27072;DHT22;14613;46.308;25.288;2023-08-20T07:11:57;35.40;51.30
27072;DHT22;14613;46.308;25.288;2023-08-20T07:14:23;35.40;51.00
27072;DHT22;14613;46.308;25.288;2023-08-20T07:16:49;35.40;50.80
27072;DHT22;14613;46.308;25.288;2023-08-20T07:19:14;35.40;50.90
27072;DHT22;14613;46.308;25.288;2023-08-20T07:21:40;35.50;50.90
27072;DHT22;14613;46.308;25.288;2023-08-20T07:24:06;35.60;50.60
27072;DHT22;14613;46.308;25.288;2023-08-20T07:26:32;35.70;50.40
27072;DHT22;14613;46.308;25.288;2023-08-20T07:28:58;35.70;49.90
27072;DHT22;14613;46.308;25.288;2023-08-20T07:31:25;35.70;49.70
27072;DHT22;14613;46.308;25.288;2023-08-20T07:33:52;35.60;49.80
27072;DHT22;14613;46.308;25.288;2023-08-20T07:36:19;35.70;50.00
27072;DHT22;14613;46.308;25.288;2023-08-20T07:38:45;35.90;49.90
27072;DHT22;14613;46.308;25.288;2023-08-20T07:41:11;36.10;49.70
27072;DHT22;14613;46.308;25.288;2023-08-20T07:43:40;36.30;50.20
27072;DHT22;14613;46.308;25.288;2023-08-20T07:46:08;36.40;49.30
27072;DHT22;14613;46.308;25.288;2023-08-20T07:48:34;36.60;49.00
27072;DHT22;14613;46.308;25.288;2023-08-20T07:51:04;36.70;48.80
27072;DHT22;14613;46.308;25.288;2023-08-20T07:53:30;36.80;48.60
27072;DHT22;14613;46.308;25.288;2023-08-20T07:55:56;36.90;48.60
27072;DHT22;14613;46.308;25.288;2023-08-20T07:58:22;36.90;48.20
27072;DHT22;14613;46.308;25.288;2023-08-20T08:00:48;37.00;48.00
27072;DHT22;14613;46.308;25.288;2023-08-20T08:03:14;37.00;47.80
27072;DHT22;14613;46.308;25.288;2023-08-20T08:05:51;37.10;47.70
27072;DHT22;14613;46.308;25.288;2023-08-20T08:08:18;37.10;47.70
27072;DHT22;14613;46.308;25.288;2023-08-20T08:10:45;37.10;47.70
27072;DHT22;14613;46.308;25.288;2023-08-20T08:13:15;37.20;47.60
27072;DHT22;14613;46.308;25.288;2023-08-20T08:15:41;37.30;47.50
27072;DHT22;14613;46.308;25.288;2023-08-20T08:18:07;37.40;47.40
27072;DHT22;14613;46.308;25.288;2023-08-20T08:20:33;37.30;47.20
27072;DHT22;14613;46.308;25.288;2023-08-20T08:22:59;37.30;47.10
27072;DHT22;14613;46.308;25.288;2023-08-20T08:25:27;37.40;47.10
27072;DHT22;14613;46.308;25.288;2023-08-20T08:27:52;37.40;46.90
27072;DHT22;14613;46.308;25.288;2023-08-20T08:30:18;37.40;46.90
27072;DHT22;14613;46.308;25.288;2023-08-20T08:32:44;37.50;46.90
27072;DHT22;14613;46.308;25.288;2023-08-20T08:35:10;37.70;46.70
27072;DHT22;14613;46.308;25.288;2023-08-20T08:37:36;37.60;46.50
27072;DHT22;14613;46.308;25.288;2023-08-20T08:40:02;37.60;46.50
27072;DHT22;14613;46.308;25.288;2023-08-20T08:42:32;37.60;46.20
27072;DHT22;14613;46.308;25.288;2023-08-20T08:45:00;37.60;46.40
27072;DHT22;14613;46.308;25.288;2023-08-20T08:47:26;37.60;46.10
27072;DHT22;14613;46.308;25.288;2023-08-20T08:49:52;37.60;46.00
27072;DHT22;14613;46.308;25.288;2023-08-20T08:52:21;37.60;46.10
27072;DHT22;14613;46.308;25.288;2023-08-20T08:54:48;37.70;46.20
27072;DHT22;14613;46.308;25.288;2023-08-20T08:57:14;37.70;46.10
27072;DHT22;14613;46.308;25.288;2023-08-20T08:59:41;37.90;46.10
27072;DHT22;14613;46.308;25.288;2023-08-20T09:02:09;38.00;46.00
27072;DHT22;14613;46.308;25.288;2023-08-20T09:04:39;38.00;45.80
27072;DHT22;14613;46.308;25.288;2023-08-20T09:07:05;38.10;45.60
27072;DHT22;14613;46.308;25.288;2023-08-20T09:09:30;38.20;45.50
27072;DHT22;14613;46.308;25.288;2023-08-20T09:11:56;38.30;45.30
27072;DHT22;14613;46.308;25.288;2023-08-20T09:14:23;38.30;45.20
27072;DHT22;14613;46.308;25.288;2023-08-20T09:17:00;38.40;45.20
27072;DHT22;14613;46.308;25.288;2023-08-20T09:19:31;38.40;45.00
27072;DHT22;14613;46.308;25.288;2023-08-20T09:22:00;38.40;44.90
27072;DHT22;14613;46.308;25.288;2023-08-20T09:24:51;38.50;44.60
27072;DHT22;14613;46.308;25.288;2023-08-20T09:27:17;38.60;44.40
27072;DHT22;14613;46.308;25.288;2023-08-20T09:29:47;38.60;44.30
27072;DHT22;14613;46.308;25.288;2023-08-20T09:32:21;38.60;44.20
27072;DHT22;14613;46.308;25.288;2023-08-20T09:34:49;38.70;44.20
27072;DHT22;14613;46.308;25.288;2023-08-20T09:37:17;38.70;43.90
27072;DHT22;14613;46.308;25.288;2023-08-20T09:39:43;38.80;43.70
27072;DHT22;14613;46.308;25.288;2023-08-20T09:42:10;38.90;43.70
27072;DHT22;14613;46.308;25.288;2023-08-20T09:44:38;38.90;43.50
27072;DHT22;14613;46.308;25.288;2023-08-20T09:47:10;39.00;44.20
27072;DHT22;14613;46.308;25.288;2023-08-20T09:49:44;39.00;43.20
27072;DHT22;14613;46.308;25.288;2023-08-20T09:52:16;39.00;43.10
27072;DHT22;14613;46.308;25.288;2023-08-20T09:54:49;39.00;43.10
27072;DHT22;14613;46.308;25.288;2023-08-20T09:57:42;39.00;42.80
27072;DHT22;14613;46.308;25.288;2023-08-20T10:00:10;38.80;41.90
27072;DHT22;14613;46.308;25.288;2023-08-20T10:02:38;38.40;42.20
27072;DHT22;14613;46.308;25.288;2023-08-20T10:05:06;38.30;42.00
27072;DHT22;14613;46.308;25.288;2023-08-20T10:07:32;38.10;42.10
27072;DHT22;14613;46.308;25.288;2023-08-20T10:09:58;38.10;42.30
27072;DHT22;14613;46.308;25.288;2023-08-20T10:12:27;38.20;42.30
27072;DHT22;14613;46.308;25.288;2023-08-20T10:14:54;38.20;42.20
27072;DHT22;14613;46.308;25.288;2023-08-20T10:17:22;38.20;42.10
27072;DHT22;14613;46.308;25.288;2023-08-20T10:19:48;38.20;42.20
27072;DHT22;14613;46.308;25.288;2023-08-20T10:22:14;38.20;42.30
27072;DHT22;14613;46.308;25.288;2023-08-20T10:24:41;38.30;42.00
27072;DHT22;14613;46.308;25.288;2023-08-20T10:27:12;38.20;41.50
27072;DHT22;14613;46.308;25.288;2023-08-20T10:29:39;37.90;41.10
27072;DHT22;14613;46.308;25.288;2023-08-20T10:32:11;37.50;41.10
27072;DHT22;14613;46.308;25.288;2023-08-20T10:34:40;37.20;41.20
27072;DHT22;14613;46.308;25.288;2023-08-20T10:37:14;37.20;41.40
27072;DHT22;14613;46.308;25.288;2023-08-20T10:39:40;37.30;41.50
27072;DHT22;14613;46.308;25.288;2023-08-20T10:45:07;37.70;41.60
27072;DHT22;14613;46.308;25.288;2023-08-20T10:47:43;38.00;41.40
27072;DHT22;14613;46.308;25.288;2023-08-20T10:50:11;38.20;41.40
27072;DHT22;14613;46.308;25.288;2023-08-20T10:52:55;38.30;41.20
27072;DHT22;14613;46.308;25.288;2023-08-20T10:55:24;38.50;41.10
27072;DHT22;14613;46.308;25.288;2023-08-20T10:57:57;38.50;41.10
27072;DHT22;14613;46.308;25.288;2023-08-20T11:00:25;38.60;41.00
27072;DHT22;14613;46.308;25.288;2023-08-20T11:02:52;38.60;40.70
27072;DHT22;14613;46.308;25.288;2023-08-20T11:05:20;38.40;40.50
27072;DHT22;14613;46.308;25.288;2023-08-20T11:07:49;38.20;40.70
27072;DHT22;14613;46.308;25.288;2023-08-20T11:10:15;38.30;40.90
27072;DHT22;14613;46.308;25.288;2023-08-20T11:12:46;38.40;41.00
27072;DHT22;14613;46.308;25.288;2023-08-20T11:15:12;38.50;41.00
27072;DHT22;14613;46.308;25.288;2023-08-20T11:17:48;38.60;40.90
27072;DHT22;14613;46.308;25.288;2023-08-20T11:20:17;38.70;40.80
27072;DHT22;14613;46.308;25.288;2023-08-20T11:22:42;38.70;40.90
27072;DHT22;14613;46.308;25.288;2023-08-20T11:25:12;38.70;41.00
27072;DHT22;14613;46.308;25.288;2023-08-20T11:27:44;38.70;41.10
27072;DHT22;14613;46.308;25.288;2023-08-20T11:30:10;38.80;41.10
27072;DHT22;14613;46.308;25.288;2023-08-20T11:32:40;38.80;41.20
27072;DHT22;14613;46.308;25.288;2023-08-20T11:35:07;38.90;41.00
27072;DHT22;14613;46.308;25.288;2023-08-20T11:37:34;38.90;40.90
27072;DHT22;14613;46.308;25.288;2023-08-20T11:39:59;39.00;40.90
27072;DHT22;14613;46.308;25.288;2023-08-20T11:42:26;38.90;40.80
27072;DHT22;14613;46.308;25.288;2023-08-20T11:44:55;38.90;40.60
27072;DHT22;14613;46.308;25.288;2023-08-20T11:47:21;38.80;40.50
27072;DHT22;14613;46.308;25.288;2023-08-20T11:49:46;38.70;40.40
27072;DHT22;14613;46.308;25.288;2023-08-20T11:52:12;38.60;40.40
27072;DHT22;14613;46.308;25.288;2023-08-20T11:54:42;38.60;40.50
27072;DHT22;14613;46.308;25.288;2023-08-20T11:57:08;38.60;40.60
27072;DHT22;14613;46.308;25.288;2023-08-20T11:59:34;38.60;40.50
27072;DHT22;14613;46.308;25.288;2023-08-20T12:02:02;38.70;40.40
27072;DHT22;14613;46.308;25.288;2023-08-20T12:04:31;38.70;40.40
27072;DHT22;14613;46.308;25.288;2023-08-20T12:07:09;38.70;40.40
27072;DHT22;14613;46.308;25.288;2023-08-20T12:09:35;38.70;40.30
27072;DHT22;14613;46.308;25.288;2023-08-20T12:12:02;38.70;40.30
27072;DHT22;14613;46.308;25.288;2023-08-20T12:14:28;38.60;40.00
27072;DHT22;14613;46.308;25.288;2023-08-20T12:16:54;38.50;39.60
27072;DHT22;14613;46.308;25.288;2023-08-20T12:19:20;38.10;39.70
27072;DHT22;14613;46.308;25.288;2023-08-20T12:21:46;37.80;40.00
27072;DHT22;14613;46.308;25.288;2023-08-20T12:24:12;37.70;40.20
27072;DHT22;14613;46.308;25.288;2023-08-20T12:26:39;37.70;40.10
27072;DHT22;14613;46.308;25.288;2023-08-20T12:29:05;37.40;39.90
27072;DHT22;14613;46.308;25.288;2023-08-20T12:31:32;37.10;39.90
27072;DHT22;14613;46.308;25.288;2023-08-20T12:33:58;37.00;40.30
27072;DHT22;14613;46.308;25.288;2023-08-20T12:36:24;37.10;40.50
27072;DHT22;14613;46.308;25.288;2023-08-20T12:38:49;37.20;40.60
27072;DHT22;14613;46.308;25.288;2023-08-20T12:41:15;37.30;40.70
27072;DHT22;14613;46.308;25.288;2023-08-20T12:43:41;37.50;40.80
27072;DHT22;14613;46.308;25.288;2023-08-20T12:46:07;37.50;40.80
27072;DHT22;14613;46.308;25.288;2023-08-20T12:48:32;37.60;40.80
27072;DHT22;14613;46.308;25.288;2023-08-20T12:50:58;37.70;40.90
27072;DHT22;14613;46.308;25.288;2023-08-20T12:53:24;37.80;41.00
27072;DHT22;14613;46.308;25.288;2023-08-20T12:55:50;37.80;41.00
27072;DHT22;14613;46.308;25.288;2023-08-20T12:58:15;37.90;41.00
27072;DHT22;14613;46.308;25.288;2023-08-20T13:00:41;37.90;41.00
27072;DHT22;14613;46.308;25.288;2023-08-20T13:03:07;38.00;41.00
27072;DHT22;14613;46.308;25.288;2023-08-20T13:05:33;37.90;40.70
27072;DHT22;14613;46.308;25.288;2023-08-20T13:07:59;37.90;40.80
27072;DHT22;14613;46.308;25.288;2023-08-20T13:10:25;37.90;40.90
27072;DHT22;14613;46.308;25.288;2023-08-20T13:12:52;37.90;40.90
27072;DHT22;14613;46.308;25.288;2023-08-20T13:15:20;37.90;40.90
27072;DHT22;14613;46.308;25.288;2023-08-20T13:17:47;37.90;40.80
27072;DHT22;14613;46.308;25.288;2023-08-20T13:20:14;37.80;40.70
27072;DHT22;14613;46.308;25.288;2023-08-20T13:22:40;37.70;40.70
27072;DHT22;14613;46.308;25.288;2023-08-20T13:25:06;37.60;40.70
27072;DHT22;14613;46.308;25.288;2023-08-20T13:27:32;37.50;40.70
27072;DHT22;14613;46.308;25.288;2023-08-20T13:29:58;37.40;40.80
27072;DHT22;14613;46.308;25.288;2023-08-20T13:32:24;37.40;40.80
27072;DHT22;14613;46.308;25.288;2023-08-20T13:34:50;37.40;40.90
27072;DHT22;14613;46.308;25.288;2023-08-20T13:37:16;37.40;41.00
27072;DHT22;14613;46.308;25.288;2023-08-20T13:39:42;37.40;40.90
27072;DHT22;14613;46.308;25.288;2023-08-20T13:42:08;37.40;40.70
27072;DHT22;14613;46.308;25.288;2023-08-20T13:44:34;37.20;40.60
27072;DHT22;14613;46.308;25.288;2023-08-20T13:46:59;37.10;40.70
27072;DHT22;14613;46.308;25.288;2023-08-20T13:49:25;37.00;40.80
27072;DHT22;14613;46.308;25.288;2023-08-20T13:51:51;37.00;40.80
27072;DHT22;14613;46.308;25.288;2023-08-20T13:54:17;37.00;40.90
27072;DHT22;14613;46.308;25.288;2023-08-20T13:56:43;37.00;40.90
27072;DHT22;14613;46.308;25.288;2023-08-20T13:59:12;37.10;40.90
27072;DHT22;14613;46.308;25.288;2023-08-20T14:01:37;37.00;40.90
27072;DHT22;14613;46.308;25.288;2023-08-20T14:04:03;37.00;40.90
27072;DHT22;14613;46.308;25.288;2023-08-20T14:06:29;36.90;40.90
27072;DHT22;14613;46.308;25.288;2023-08-20T14:08:55;36.90;41.00
27072;DHT22;14613;46.308;25.288;2023-08-20T14:11:21;36.90;41.10
27072;DHT22;14613;46.308;25.288;2023-08-20T14:13:47;36.80;41.10
27072;DHT22;14613;46.308;25.288;2023-08-20T14:16:13;36.80;41.20
27072;DHT22;14613;46.308;25.288;2023-08-20T14:18:39;36.70;41.10
27072;DHT22;14613;46.308;25.288;2023-08-20T14:21:05;36.70;41.20
27072;DHT22;14613;46.308;25.288;2023-08-20T14:23:31;36.60;41.30
27072;DHT22;14613;46.308;25.288;2023-08-20T14:25:56;36.60;41.40
27072;DHT22;14613;46.308;25.288;2023-08-20T14:28:22;36.50;41.50
27072;DHT22;14613;46.308;25.288;2023-08-20T14:30:49;36.50;41.70
27072;DHT22;14613;46.308;25.288;2023-08-20T14:33:15;36.40;41.90
27072;DHT22;14613;46.308;25.288;2023-08-20T14:35:41;36.40;41.90
27072;DHT22;14613;46.308;25.288;2023-08-20T14:38:07;36.30;42.00
27072;DHT22;14613;46.308;25.288;2023-08-20T14:40:39;36.20;42.10
27072;DHT22;14613;46.308;25.288;2023-08-20T14:43:06;36.10;42.30
27072;DHT22;14613;46.308;25.288;2023-08-20T14:45:32;36.10;42.40
27072;DHT22;14613;46.308;25.288;2023-08-20T14:47:58;36.10;42.60
27072;DHT22;14613;46.308;25.288;2023-08-20T14:50:24;36.00;42.60
27072;DHT22;14613;46.308;25.288;2023-08-20T14:52:50;35.90;42.70
27072;DHT22;14613;46.308;25.288;2023-08-20T14:55:20;35.90;42.80
27072;DHT22;14613;46.308;25.288;2023-08-20T14:57:46;35.80;43.00
27072;DHT22;14613;46.308;25.288;2023-08-20T15:00:13;35.70;43.20
27072;DHT22;14613;46.308;25.288;2023-08-20T15:02:43;35.60;43.40
27072;DHT22;14613;46.308;25.288;2023-08-20T15:05:10;35.60;43.60
27072;DHT22;14613;46.308;25.288;2023-08-20T15:07:36;35.50;43.80
27072;DHT22;14613;46.308;25.288;2023-08-20T15:10:03;35.40;43.90
27072;DHT22;14613;46.308;25.288;2023-08-20T15:12:29;35.40;44.10
27072;DHT22;14613;46.308;25.288;2023-08-20T15:14:56;35.30;44.10
27072;DHT22;14613;46.308;25.288;2023-08-20T15:17:22;35.20;44.20
27072;DHT22;14613;46.308;25.288;2023-08-20T15:19:47;35.20;44.40
27072;DHT22;14613;46.308;25.288;2023-08-20T15:22:14;35.10;44.40